Flight Track Log - Related Links

Times and Time Zones

All times are in EDT time to prevent confusion due to time zone crossing. See the ASQ6137 flight status page for this flight to view local times or setup timezone preferences in your user account.

Time Position Orientation Groundspeed Altitude Reporting Facility
EDT Latitude Longitude Course Direction KTS MPH feet Rate Location/Type
Tue 12:09:26 PM 44.2167 -88.4833 160° South 222 255 3,200  Level KMKE
Tue 12:09:56 PM 44.2000 -88.4333 115° Southeast 262 302 4,000 2,313 Climbing KMKE
Tue 12:11:00 PM 44.0729 -88.4281 160° South  Level FlightAware Approximate
Tue 12:11:02 PM 44.1500 -88.3833 144° Southeast 235 270 6,900  Level KMKE
Tue 12:11:59 PM 44.0883 -88.3644 168° South 239 275 9,100 2,017 Climbing Minneapolis Center
Tue 12:12:00 PM 44.0133 -88.3983 160° South  Level FlightAware Approximate
Tue 12:13:00 PM 43.9538 -88.3685 160° South  Level FlightAware Approximate
Tue 12:13:01 PM 44.0175 -88.3394 166° South 258 297 10,900  Level Minneapolis Center
Tue 12:14:00 PM 43.8871 -88.3352 160° South  Level FlightAware Approximate
Tue 12:14:03 PM 43.9356 -88.3083 165° South 295 339 12,300  Level Minneapolis Center
Tue 12:15:16 PM 43.8369 -88.2742 166° South 310 357 13,000 311 Climbing Minneapolis Center
Tue 12:16:18 PM 43.7394 -88.2383 165° South 353 406 13,000  Level Minneapolis Center
Tue 12:17:20 PM 43.6175 -88.1944 165° South 381 438 13,000  Level Minneapolis Center
Tue 12:18:16 PM 43.5169 -88.1592 166° South 372 428 13,000  Level Chicago Center
Tue 12:19:18 PM 43.4200 -88.1233 165° South 360 414 13,000 -435 Level Chicago Center
Tue 12:20:20 PM 43.3389 -88.0347 142° Southeast 373 429 12,100 -871 Descending Chicago Center
Tue 12:21:22 PM 43.2581 -87.9397 139° Southeast 380 437 11,200 -919 Descending Chicago Center
Tue 12:22:24 PM 43.1775 -87.8450 139° Southeast 381 438 10,200 -581 Descending Chicago Center
Tue 12:23:26 PM 43.0994 -87.7533 139° Southeast 371 427 10,000 -48 Descending Chicago Center
Tue 12:24:28 PM 43.0217 -87.6636 140° Southeast 366 421 10,100 -97 Climbing Chicago Center
Tue 12:25:30 PM 42.9172 -87.6422 171° South 317 365 9,800 -677 Descending Chicago Center
Tue 12:26:32 PM 42.8453 -87.6339 175° South 263 303 8,700 -1,016 Descending Chicago Center
Tue 12:27:34 PM 42.7714 -87.6342 180° South 264 304 7,700 -823 Descending Chicago Center
Tue 12:28:36 PM 42.7014 -87.6342 180° South 253 291 7,000 -339 Descending Chicago Center
Tue 12:29:38 PM 42.6322 -87.6350 181° South 248 285 7,000  Level Chicago Center
Tue 12:30:40 PM 42.5625 -87.6344 180° South 249 287 7,000  Level Chicago Center
Tue 12:31:42 PM 42.4792 -87.6456 186° South 254 292 7,000  Level Chicago Center
Tue 12:32:44 PM 42.4083 -87.6550 186° South 255 293 7,000 -242 Level Chicago Center
Tue 12:33:46 PM 42.3378 -87.6628 185° South 254 292 6,500 -726 Descending Chicago Center
Tue 12:34:48 PM 42.2708 -87.6722 186° South 251 289 5,500 -726 Descending Chicago Center
Tue 12:35:50 PM 42.2025 -87.6806 185° South 248 285 5,000 -581 Descending Chicago Center
Tue 12:36:52 PM 42.1406 -87.7406 216° Southwest 236 272 4,300 -1,000 Descending Chicago Center
Tue 12:37:50 PM 42.0833 -87.8000 218° Southwest 229 264 3,000 -1,220 Descending Chicago TRACON
Tue 12:38:50 PM 42.0500 -87.8333 217° Southwest 181 208 1,900 -1,100 Descending Chicago TRACON

Login

Don't have an account? Register now (free) for customized features, flight alerts, and more!